createdAt,value
2017-05-04T00:00:35.888Z,0
2017-05-04T00:01:16.779Z,0
2017-05-04T00:01:57.707Z,0
2017-05-04T00:02:38.659Z,0
2017-05-04T00:03:19.487Z,0
2017-05-04T00:04:00.363Z,0
2017-05-04T00:04:41.238Z,0
2017-05-04T00:05:22.125Z,0
2017-05-04T00:06:03.001Z,0
2017-05-04T00:06:43.880Z,0
2017-05-04T00:07:24.756Z,0
2017-05-04T00:08:05.651Z,0
2017-05-04T00:08:46.543Z,0
2017-05-04T00:09:27.429Z,0
2017-05-04T00:10:08.335Z,0
2017-05-04T00:10:49.231Z,0
2017-05-04T00:11:30.117Z,0
2017-05-04T00:12:11.007Z,0
2017-05-04T00:12:51.888Z,0
2017-05-04T00:13:32.765Z,0
2017-05-04T00:14:13.654Z,0
2017-05-04T00:14:54.543Z,0
2017-05-04T00:15:35.435Z,0
2017-05-04T00:16:16.304Z,0
2017-05-04T00:16:57.171Z,0
2017-05-04T00:17:38.056Z,0
2017-05-04T00:18:18.949Z,0
2017-05-04T00:18:59.841Z,0
2017-05-04T00:19:40.723Z,0
2017-05-04T00:20:21.628Z,0
2017-05-04T00:21:02.513Z,0
2017-05-04T00:21:43.379Z,0
2017-05-04T00:22:24.969Z,0
2017-05-04T00:24:03.353Z,0
2017-05-04T00:24:44.236Z,0
2017-05-04T00:25:25.125Z,0
2017-05-04T00:26:06.010Z,0
2017-05-04T00:26:46.886Z,0
2017-05-04T00:27:27.771Z,0
2017-05-04T00:28:08.660Z,0
2017-05-04T00:28:49.544Z,0
2017-05-04T00:29:30.424Z,0
2017-05-04T00:30:11.292Z,0
2017-05-04T00:30:52.194Z,0
2017-05-04T00:31:33.139Z,0
2017-05-04T00:32:14.030Z,0
2017-05-04T00:32:54.920Z,0
2017-05-04T00:33:35.785Z,0
2017-05-04T00:34:16.681Z,0
2017-05-04T00:34:57.562Z,0
2017-05-04T00:35:38.447Z,0
2017-05-04T00:36:19.327Z,0
2017-05-04T00:37:00.207Z,0
2017-05-04T00:37:41.105Z,0
2017-05-04T00:38:21.971Z,0
2017-05-04T00:39:02.852Z,0
2017-05-04T00:39:43.717Z,0
2017-05-04T00:40:24.614Z,0
2017-05-04T00:41:05.513Z,0
2017-05-04T00:41:46.385Z,0
2017-05-04T00:42:27.244Z,0
2017-05-04T00:43:08.109Z,0
2017-05-04T00:43:49.015Z,0
2017-05-04T00:44:29.884Z,0
2017-05-04T00:45:10.761Z,0
2017-05-04T00:45:51.618Z,0
2017-05-04T00:46:32.489Z,0
2017-05-04T00:47:13.360Z,0
2017-05-04T00:47:54.247Z,0
2017-05-04T00:48:35.132Z,0
2017-05-04T00:49:16.022Z,0
2017-05-04T00:49:56.894Z,0
2017-05-04T00:50:37.785Z,0
2017-05-04T00:51:18.664Z,0
2017-05-04T00:51:59.550Z,0
2017-05-04T00:52:40.427Z,0
2017-05-04T00:53:21.308Z,0
2017-05-04T00:54:02.200Z,0
2017-05-04T00:54:43.094Z,0
2017-05-04T00:55:23.983Z,0
2017-05-04T00:56:04.889Z,0
2017-05-04T00:56:45.767Z,0
2017-05-04T00:57:26.685Z,0
2017-05-04T00:58:07.575Z,0
2017-05-04T00:58:48.464Z,0
2017-05-04T00:59:29.359Z,0
2017-05-04T01:00:10.243Z,0
2017-05-04T01:00:51.118Z,0
2017-05-04T01:01:31.988Z,0
2017-05-04T01:02:12.876Z,0
2017-05-04T01:02:53.878Z,0
2017-05-04T01:03:34.752Z,0
2017-05-04T01:04:15.625Z,0
2017-05-04T01:04:56.518Z,0
2017-05-04T01:05:37.397Z,0
2017-05-04T01:06:18.278Z,0
2017-05-04T01:06:59.129Z,0
2017-05-04T01:07:39.987Z,0
2017-05-04T01:08:20.858Z,0
2017-05-04T01:09:01.741Z,0
2017-05-04T01:09:42.635Z,0
2017-05-04T01:10:23.512Z,0
2017-05-04T01:11:04.397Z,0
2017-05-04T01:11:45.292Z,0
2017-05-04T01:12:26.177Z,0
2017-05-04T01:13:07.052Z,0
2017-05-04T01:13:47.928Z,0
2017-05-04T01:14:28.793Z,0
2017-05-04T01:15:09.679Z,0
2017-05-04T01:15:50.573Z,0
2017-05-04T01:16:31.455Z,0
2017-05-04T01:17:12.345Z,0
2017-05-04T01:17:53.199Z,0
2017-05-04T01:18:34.097Z,0
2017-05-04T01:19:14.960Z,0
2017-05-04T01:19:55.842Z,0
2017-05-04T01:20:36.713Z,0
2017-05-04T01:21:17.581Z,0
2017-05-04T01:21:58.477Z,0
2017-05-04T01:22:39.349Z,0
2017-05-04T01:23:20.227Z,0
2017-05-04T01:24:01.088Z,0
2017-05-04T01:24:41.946Z,0
2017-05-04T01:25:22.842Z,0
2017-05-04T01:26:03.708Z,0
2017-05-04T01:26:44.582Z,0
2017-05-04T01:27:25.460Z,0
2017-05-04T01:28:06.336Z,0
2017-05-04T01:28:47.202Z,0
2017-05-04T01:29:28.083Z,0
2017-05-04T01:30:08.952Z,0
2017-05-04T01:30:49.841Z,0
2017-05-04T01:31:30.717Z,0
2017-05-04T01:32:11.580Z,0
2017-05-04T01:32:52.468Z,0
2017-05-04T01:33:33.302Z,0
2017-05-04T01:34:14.206Z,0
2017-05-04T01:34:55.031Z,0
2017-05-04T01:35:35.901Z,0
2017-05-04T01:36:16.757Z,0
2017-05-04T01:36:57.626Z,0
2017-05-04T01:37:38.496Z,0
2017-05-04T01:38:19.360Z,0
2017-05-04T01:39:00.218Z,0
2017-05-04T01:39:41.085Z,0
2017-05-04T01:40:21.958Z,0
2017-05-04T01:41:02.811Z,0
2017-05-04T01:41:43.691Z,0
2017-05-04T01:42:24.573Z,0
2017-05-04T01:43:05.452Z,0
2017-05-04T01:43:46.331Z,0
2017-05-04T01:44:27.222Z,0
2017-05-04T01:45:08.093Z,0
2017-05-04T01:45:48.975Z,0
2017-05-04T01:46:29.866Z,0
2017-05-04T01:47:10.746Z,0
2017-05-04T01:47:51.631Z,0
2017-05-04T01:48:32.512Z,0
2017-05-04T01:49:13.427Z,0
2017-05-04T01:49:54.304Z,0
2017-05-04T01:50:35.160Z,0
2017-05-04T01:51:16.039Z,0
2017-05-04T01:51:56.915Z,0
2017-05-04T01:52:37.813Z,0
2017-05-04T01:53:18.683Z,0
2017-05-04T01:53:59.554Z,0
2017-05-04T01:54:40.440Z,0
2017-05-04T01:55:21.286Z,0
2017-05-04T01:56:02.139Z,0
2017-05-04T01:56:43.021Z,0
2017-05-04T01:57:23.906Z,0
2017-05-04T01:58:04.787Z,0
2017-05-04T01:58:45.664Z,0
2017-05-04T01:59:26.543Z,0
2017-05-04T02:00:07.434Z,0
2017-05-04T02:00:48.318Z,0
2017-05-04T02:01:29.188Z,0
2017-05-04T02:02:10.067Z,0
2017-05-04T02:02:50.947Z,0
2017-05-04T02:03:31.840Z,0
2017-05-04T02:04:12.742Z,0
2017-05-04T02:04:53.629Z,0
2017-05-04T02:05:34.503Z,0
2017-05-04T02:06:15.388Z,0
2017-05-04T02:06:56.270Z,0
2017-05-04T02:07:37.147Z,0
2017-05-04T02:08:18.016Z,0
2017-05-04T02:08:58.899Z,0
2017-05-04T02:09:39.778Z,0
2017-05-04T02:10:20.665Z,0
2017-05-04T02:11:01.552Z,0
2017-05-04T02:11:42.445Z,0
2017-05-04T02:12:23.325Z,0
2017-05-04T02:13:04.219Z,0
2017-05-04T02:13:45.099Z,0
2017-05-04T02:14:25.984Z,0
2017-05-04T02:15:06.872Z,0
2017-05-04T02:15:47.748Z,0
2017-05-04T02:16:28.644Z,0
2017-05-04T02:17:09.523Z,0
2017-05-04T02:17:50.410Z,0
2017-05-04T02:18:31.312Z,0
2017-05-04T02:19:12.184Z,0
2017-05-04T02:19:53.060Z,0
2017-05-04T02:20:33.928Z,0
2017-05-04T02:21:14.800Z,0
2017-05-04T02:21:55.678Z,0
2017-05-04T02:22:36.576Z,0
2017-05-04T02:23:17.461Z,0
2017-05-04T02:23:58.339Z,0
2017-05-04T02:24:39.220Z,0
2017-05-04T02:25:20.109Z,0
2017-05-04T02:26:00.981Z,0
2017-05-04T02:26:41.864Z,0
2017-05-04T02:27:22.752Z,0
2017-05-04T02:28:03.644Z,0
2017-05-04T02:28:44.520Z,0
2017-05-04T02:29:25.395Z,0
2017-05-04T02:30:06.253Z,0
2017-05-04T02:30:47.136Z,0
2017-05-04T02:31:28.049Z,0
2017-05-04T02:32:08.909Z,0
2017-05-04T02:32:49.784Z,0
2017-05-04T02:33:30.675Z,0
2017-05-04T02:34:11.578Z,0
2017-05-04T02:34:52.443Z,0
2017-05-04T02:35:33.316Z,0
2017-05-04T02:36:14.195Z,0
2017-05-04T02:36:55.071Z,0
2017-05-04T02:37:35.970Z,0
2017-05-04T02:38:16.834Z,0
2017-05-04T02:38:57.742Z,0
2017-05-04T02:39:38.604Z,0
2017-05-04T02:40:19.492Z,0
2017-05-04T02:41:00.370Z,0
2017-05-04T02:41:41.245Z,0
2017-05-04T02:42:22.160Z,0
2017-05-04T02:43:03.041Z,0
2017-05-04T02:43:43.926Z,0
2017-05-04T02:44:24.809Z,0
2017-05-04T02:45:05.718Z,0
2017-05-04T02:45:46.625Z,0
2017-05-04T02:46:27.526Z,0
2017-05-04T02:47:08.394Z,0
2017-05-04T02:47:49.276Z,0
2017-05-04T02:48:30.163Z,0
2017-05-04T02:49:11.063Z,0
2017-05-04T02:49:51.935Z,0
2017-05-04T02:50:32.809Z,0
2017-05-04T02:51:13.715Z,0
2017-05-04T02:51:54.581Z,0
2017-05-04T02:52:35.460Z,0
2017-05-04T02:53:16.331Z,0
2017-05-04T02:53:57.209Z,0
2017-05-04T02:54:38.092Z,0
2017-05-04T02:55:18.969Z,0
2017-05-04T02:55:59.846Z,0
2017-05-04T02:56:40.726Z,0
2017-05-04T02:57:21.594Z,0
2017-05-04T02:58:02.485Z,0
2017-05-04T02:58:43.360Z,0
2017-05-04T02:59:24.238Z,0
2017-05-04T03:00:05.109Z,0
2017-05-04T03:00:45.980Z,0
2017-05-04T03:01:26.839Z,0
2017-05-04T03:02:07.721Z,0
2017-05-04T03:02:48.626Z,0
2017-05-04T03:03:29.498Z,0
2017-05-04T03:04:10.376Z,0
2017-05-04T03:04:51.267Z,4
2017-05-04T03:05:32.164Z,4
2017-05-04T03:06:13.051Z,4
2017-05-04T03:06:53.929Z,4
2017-05-04T03:07:34.821Z,4
2017-05-04T03:08:15.709Z,4
2017-05-04T03:08:56.588Z,4
2017-05-04T03:09:37.482Z,4
2017-05-04T03:10:18.373Z,0
2017-05-04T03:10:59.238Z,0
2017-05-04T03:11:40.099Z,4
2017-05-04T03:12:20.967Z,4
2017-05-04T03:13:01.857Z,4
2017-05-04T03:13:42.729Z,4
2017-05-04T03:14:23.633Z,4
2017-05-04T03:15:04.483Z,8
2017-05-04T03:15:45.350Z,4
2017-05-04T03:16:26.217Z,4
2017-05-04T03:17:07.158Z,4
2017-05-04T03:17:48.005Z,4
2017-05-04T03:18:28.869Z,4
2017-05-04T03:19:09.748Z,8
2017-05-04T03:19:50.606Z,8
2017-05-04T03:20:31.467Z,8
2017-05-04T03:21:12.322Z,8
2017-05-04T03:21:53.205Z,8
2017-05-04T03:22:34.112Z,8
2017-05-04T03:23:14.983Z,8
2017-05-04T03:23:55.848Z,8
2017-05-04T03:24:36.719Z,8
2017-05-04T03:25:17.603Z,8
2017-05-04T03:25:58.519Z,8
2017-05-04T03:26:39.391Z,8
2017-05-04T03:27:20.261Z,8
2017-05-04T03:28:01.151Z,12
2017-05-04T03:28:42.041Z,12
2017-05-04T03:29:22.913Z,12
2017-05-04T03:30:03.781Z,16
2017-05-04T03:30:44.670Z,12
2017-05-04T03:31:25.571Z,16
2017-05-04T03:32:06.451Z,16
2017-05-04T03:32:47.329Z,16
2017-05-04T03:33:28.228Z,16
2017-05-04T03:34:09.116Z,24
2017-05-04T03:34:50.001Z,24
2017-05-04T03:35:30.890Z,24
2017-05-04T03:36:11.785Z,28
2017-05-04T03:36:52.667Z,24
2017-05-04T03:37:33.556Z,32
2017-05-04T03:38:14.467Z,32
2017-05-04T03:38:55.337Z,36
2017-05-04T03:39:36.203Z,40
2017-05-04T03:40:17.095Z,44
2017-05-04T03:40:57.985Z,48
2017-05-04T03:41:38.860Z,48
2017-05-04T03:42:19.731Z,52
2017-05-04T03:43:00.608Z,60
2017-05-04T03:43:41.500Z,60
2017-05-04T03:44:22.388Z,64
2017-05-04T03:45:03.263Z,60
2017-05-04T03:45:44.150Z,64
2017-05-04T03:46:25.068Z,64
2017-05-04T03:47:05.932Z,64
2017-05-04T03:47:46.808Z,68
2017-05-04T03:48:27.697Z,72
2017-05-04T03:49:08.592Z,76
2017-05-04T03:49:49.470Z,72
2017-05-04T03:50:30.347Z,76
2017-05-04T03:51:11.222Z,72
2017-05-04T03:51:52.120Z,64
2017-05-04T03:52:33.008Z,64
2017-05-04T03:53:13.895Z,56
2017-05-04T03:53:54.775Z,56
2017-05-04T03:54:35.659Z,56
2017-05-04T03:55:16.562Z,56
2017-05-04T03:55:57.448Z,56
2017-05-04T03:56:38.339Z,60
2017-05-04T03:57:19.267Z,64
2017-05-04T03:58:00.165Z,68
2017-05-04T03:58:41.030Z,76
2017-05-04T03:59:21.902Z,80
2017-05-04T04:00:02.786Z,84
2017-05-04T04:00:43.677Z,84
2017-05-04T04:01:24.553Z,84
2017-05-04T04:02:05.432Z,88
2017-05-04T04:02:46.314Z,88
2017-05-04T04:03:27.238Z,92
2017-05-04T04:04:08.081Z,104
2017-05-04T04:04:48.999Z,104
2017-05-04T04:07:04.086Z,116
2017-05-04T04:07:44.967Z,120
2017-05-04T04:08:28.451Z,128
2017-05-04T04:09:09.346Z,148
2017-05-04T04:09:50.215Z,164
2017-05-04T04:10:31.086Z,176
2017-05-04T04:11:11.977Z,188
2017-05-04T04:11:52.848Z,196
2017-05-04T04:12:33.736Z,208
2017-05-04T04:13:14.605Z,224
2017-05-04T04:15:48.836Z,280
2017-05-04T04:16:44.563Z,292
2017-05-04T04:17:25.455Z,304
2017-05-04T04:19:39.181Z,328
2017-05-04T04:20:20.061Z,340
2017-05-04T04:21:00.931Z,348
2017-05-04T04:21:41.796Z,356
2017-05-04T04:22:22.660Z,368
2017-05-04T04:23:03.541Z,380
2017-05-04T04:23:44.419Z,400
2017-05-04T04:24:25.298Z,424
2017-05-04T04:26:54.405Z,524
2017-05-04T04:27:35.297Z,548
2017-05-04T04:28:16.152Z,576
2017-05-04T04:28:57.034Z,600
2017-05-04T04:29:37.914Z,620
2017-05-04T04:30:18.825Z,648
2017-05-04T04:30:59.688Z,656
2017-05-04T04:31:40.572Z,676
2017-05-04T04:32:21.469Z,688
2017-05-04T04:33:02.339Z,692
2017-05-04T04:33:43.204Z,696
2017-05-04T04:34:24.068Z,700
2017-05-04T04:35:04.936Z,696
2017-05-04T04:35:45.808Z,704
2017-05-04T04:36:26.690Z,716
2017-05-04T04:37:07.585Z,720
2017-05-04T04:37:48.446Z,720
2017-05-04T04:38:29.302Z,724
2017-05-04T04:39:10.181Z,728
2017-05-04T04:39:51.063Z,740
2017-05-04T04:40:31.963Z,752
2017-05-04T04:41:12.827Z,760
2017-05-04T04:41:53.690Z,760
2017-05-04T04:42:34.556Z,756
2017-05-04T04:43:15.424Z,764
2017-05-04T04:43:56.284Z,788
2017-05-04T04:44:37.162Z,820
2017-05-04T04:45:18.094Z,836
2017-05-04T04:45:58.946Z,832
2017-05-04T04:46:39.825Z,784
2017-05-04T04:47:20.680Z,716
2017-05-04T04:48:01.571Z,644
2017-05-04T04:48:42.434Z,592
2017-05-04T04:49:23.306Z,560
2017-05-04T04:50:04.217Z,544
2017-05-04T04:50:45.050Z,528
2017-05-04T04:51:25.925Z,532
2017-05-04T04:52:06.833Z,544
2017-05-04T04:52:47.711Z,564
2017-05-04T04:53:28.616Z,580
2017-05-04T04:54:09.435Z,604
2017-05-04T04:54:50.321Z,620
2017-05-04T04:55:31.209Z,628
2017-05-04T04:56:12.100Z,620
2017-05-04T04:56:52.974Z,612
2017-05-04T04:57:33.851Z,608
2017-05-04T04:58:14.764Z,596
2017-05-04T04:58:55.636Z,592
2017-05-04T04:59:36.501Z,584
2017-05-04T05:00:17.370Z,584
2017-05-04T05:00:58.237Z,592
2017-05-04T05:01:39.118Z,608
2017-05-04T05:02:20.025Z,636
2017-05-04T05:03:00.920Z,660
2017-05-04T05:03:41.795Z,672
2017-05-04T05:04:22.702Z,672
2017-05-04T05:05:03.574Z,664
2017-05-04T05:05:44.452Z,684
2017-05-04T05:06:25.350Z,732
2017-05-04T05:07:06.235Z,764
2017-05-04T05:07:47.137Z,764
2017-05-04T05:08:28.026Z,740
2017-05-04T05:09:08.897Z,708
2017-05-04T05:09:49.774Z,672
2017-05-04T05:10:45.269Z,668
2017-05-04T05:11:26.133Z,692
2017-05-04T05:12:07.010Z,724
2017-05-04T05:12:47.973Z,772
2017-05-04T05:14:49.308Z,836
2017-05-04T05:15:30.186Z,848
2017-05-04T05:16:17.940Z,844
2017-05-04T05:16:58.818Z,872
2017-05-04T05:17:39.703Z,872
2017-05-04T05:20:08.900Z,856
2017-05-04T05:21:04.794Z,892
2017-05-04T05:21:45.676Z,924
2017-05-04T05:24:22.740Z,1084
2017-05-04T05:25:03.601Z,1204
2017-05-04T05:25:44.469Z,1304
2017-05-04T05:26:25.331Z,1348
2017-05-04T05:27:06.218Z,1356
2017-05-04T05:27:47.104Z,1332
2017-05-04T05:28:27.983Z,1264
2017-05-04T05:30:57.088Z,1004
2017-05-04T05:31:37.967Z,952
2017-05-04T05:33:37.461Z,964
2017-05-04T05:34:18.346Z,1048
2017-05-04T05:34:59.242Z,1132
2017-05-04T05:35:54.819Z,1184
2017-05-04T05:36:35.712Z,1188
2017-05-04T05:37:16.588Z,1152
2017-05-04T05:37:57.461Z,1096
2017-05-04T05:38:53.321Z,1032
2017-05-04T05:39:34.199Z,1004
2017-05-04T05:41:53.079Z,1004
2017-05-04T05:42:33.986Z,976
2017-05-04T05:43:14.854Z,948
2017-05-04T05:43:55.732Z,964
2017-05-04T05:44:36.605Z,936
2017-05-04T05:45:17.486Z,916
2017-05-04T05:47:51.738Z,728
2017-05-04T05:48:32.601Z,736
2017-05-04T05:49:13.480Z,724
2017-05-04T05:49:56.931Z,688
2017-05-04T05:50:37.807Z,684
2017-05-04T05:51:25.580Z,704
2017-05-04T05:52:06.462Z,724
2017-05-04T05:52:47.352Z,760
2017-05-04T05:53:28.227Z,824
2017-05-04T05:54:09.088Z,912
2017-05-04T05:54:49.988Z,988
2017-05-04T05:56:48.923Z,1172
2017-05-04T05:57:29.750Z,1208
2017-05-04T05:58:10.600Z,1224
2017-05-04T05:58:51.468Z,1228
2017-05-04T05:59:32.369Z,1288
2017-05-04T06:00:13.212Z,1348
2017-05-04T06:00:54.086Z,1504
2017-05-04T06:01:35.043Z,1616
2017-05-04T06:02:15.897Z,1656
2017-05-04T06:06:18.815Z,1652
2017-05-04T06:08:43.065Z,1572
2017-05-04T06:09:23.930Z,1624
2017-05-04T06:11:37.670Z,1596
2017-05-04T06:12:18.567Z,1584
2017-05-04T06:12:59.457Z,1600
2017-05-04T06:13:47.229Z,1644
2017-05-04T06:18:14.846Z,1288
2017-05-04T06:20:28.596Z,1472
2017-05-04T06:21:09.495Z,1584
2017-05-04T06:23:43.728Z,1860
2017-05-04T06:25:43.220Z,1692
2017-05-04T06:26:24.073Z,1584
2017-05-04T06:27:04.964Z,1452
2017-05-04T06:27:45.916Z,1364
2017-05-04T06:28:26.796Z,1320
2017-05-04T06:32:23.705Z,1404
2017-05-04T06:33:04.588Z,1500
2017-05-04T06:33:45.468Z,1616
2017-05-04T06:36:00.372Z,1616
2017-05-04T06:36:41.259Z,1612
2017-05-04T06:37:22.159Z,1580
2017-05-04T06:38:03.051Z,1544
2017-05-04T06:40:16.780Z,1632
2017-05-04T06:40:57.659Z,1704
2017-05-04T06:41:45.260Z,1780
2017-05-04T06:42:26.171Z,1796
2017-05-04T06:43:07.054Z,1792
2017-05-04T06:43:47.941Z,1816
2017-05-04T06:44:43.652Z,1900
2017-05-04T06:45:24.525Z,1988
2017-05-04T06:46:05.416Z,2040
2017-05-04T06:46:46.302Z,2084
2017-05-04T06:47:27.180Z,2184
2017-05-04T06:48:08.057Z,2344
2017-05-04T06:48:48.930Z,2540
2017-05-04T06:49:29.816Z,2744
2017-05-04T06:50:10.703Z,2836
2017-05-04T06:50:51.571Z,2812
2017-05-04T06:51:32.456Z,2788
2017-05-04T06:52:13.323Z,2712
2017-05-04T06:52:54.183Z,2720
2017-05-04T06:53:35.055Z,2796
2017-05-04T06:54:15.944Z,2908
2017-05-04T06:54:56.814Z,3008
2017-05-04T06:55:37.688Z,3092
2017-05-04T06:56:18.617Z,3152
2017-05-04T06:56:59.500Z,3112
2017-05-04T06:57:40.378Z,2976
2017-05-04T06:58:21.255Z,2832
2017-05-04T06:59:02.144Z,2732
2017-05-04T06:59:43.008Z,2728
2017-05-04T07:00:23.883Z,2700
2017-05-04T07:01:04.790Z,2740
2017-05-04T07:01:45.666Z,2804
2017-05-04T07:02:26.552Z,2840
2017-05-04T07:03:07.426Z,2856
2017-05-04T07:03:48.295Z,2836
2017-05-04T07:04:29.159Z,2828
2017-05-04T07:05:10.047Z,2780
2017-05-04T07:05:50.921Z,2708
2017-05-04T07:06:31.806Z,2696
2017-05-04T07:07:12.702Z,2776
2017-05-04T07:07:53.573Z,2760
2017-05-04T07:08:34.443Z,2660
2017-05-04T07:09:15.314Z,2604
2017-05-04T07:09:56.190Z,2624
2017-05-04T07:10:37.062Z,2664
2017-05-04T07:11:17.969Z,2712
2017-05-04T07:11:58.841Z,2760
2017-05-04T07:12:39.724Z,2772
2017-05-04T07:13:20.634Z,2808
2017-05-04T07:14:01.609Z,2760
2017-05-04T07:14:42.455Z,2776
2017-05-04T07:15:23.334Z,2764
2017-05-04T07:16:04.212Z,2676
2017-05-04T07:16:45.143Z,2676
2017-05-04T07:17:26.090Z,2692
2017-05-04T07:18:06.976Z,2676
2017-05-04T07:18:47.881Z,2692
2017-05-04T07:19:28.759Z,2764
2017-05-04T07:20:09.634Z,2928
2017-05-04T07:20:50.505Z,3100
2017-05-04T07:21:31.374Z,3188
2017-05-04T07:22:12.297Z,3108
2017-05-04T07:22:53.177Z,2956
2017-05-04T07:23:34.865Z,2772
2017-05-04T07:24:15.774Z,2652
2017-05-04T07:24:56.665Z,2580
2017-05-04T07:25:37.569Z,2508
2017-05-04T07:26:18.471Z,2488
2017-05-04T07:26:59.393Z,2420
2017-05-04T07:27:40.280Z,2260
2017-05-04T07:28:21.164Z,2040
2017-05-04T07:29:02.083Z,1908
2017-05-04T07:29:42.945Z,1832
2017-05-04T07:30:23.869Z,1728
2017-05-04T07:31:04.753Z,1696
2017-05-04T07:31:45.623Z,1664
2017-05-04T07:32:26.523Z,1656
2017-05-04T07:33:07.387Z,1680
2017-05-04T07:33:48.262Z,1744
2017-05-04T07:34:29.173Z,1816
2017-05-04T07:35:10.055Z,1868
2017-05-04T07:35:50.941Z,1904
2017-05-04T07:36:31.846Z,1960
2017-05-04T07:37:12.731Z,1948
2017-05-04T07:37:53.612Z,1928
2017-05-04T07:38:34.524Z,1888
2017-05-04T07:39:15.387Z,1868
2017-05-04T07:39:57.201Z,1860
2017-05-04T07:40:38.142Z,1812
2017-05-04T07:41:19.013Z,1680
2017-05-04T07:41:59.883Z,1708
2017-05-04T07:42:40.748Z,1852
2017-05-04T07:43:21.639Z,1932
2017-05-04T07:44:02.499Z,1912
2017-05-04T07:44:43.456Z,1884
2017-05-04T07:45:24.358Z,1892
2017-05-04T07:46:05.200Z,1932
2017-05-04T07:46:46.085Z,2028
2017-05-04T07:47:26.953Z,2092
2017-05-04T07:48:07.823Z,2144
2017-05-04T07:48:48.706Z,2136
2017-05-04T07:49:29.582Z,2144
2017-05-04T07:50:10.520Z,2212
2017-05-04T07:50:51.436Z,2228
2017-05-04T07:51:32.347Z,2248
2017-05-04T07:52:13.215Z,2240
2017-05-04T07:52:54.641Z,2188
2017-05-04T07:53:35.527Z,2272
2017-05-04T07:54:16.405Z,2408
2017-05-04T07:54:57.294Z,2528
2017-05-04T07:55:38.178Z,2532
2017-05-04T07:56:19.045Z,2500
2017-05-04T07:56:59.955Z,2440
2017-05-04T07:57:41.500Z,2344
2017-05-04T07:58:22.427Z,2272
2017-05-04T07:59:03.320Z,2160
2017-05-04T07:59:44.198Z,2052
2017-05-04T08:00:25.092Z,2036
2017-05-04T08:01:05.976Z,2012
2017-05-04T08:01:46.858Z,1976
2017-05-04T08:02:28.499Z,1976
2017-05-04T08:03:10.000Z,2056
2017-05-04T08:03:50.873Z,2112
2017-05-04T08:04:31.763Z,2204
2017-05-04T08:05:12.632Z,2224
2017-05-04T08:05:53.549Z,2332
2017-05-04T08:06:34.464Z,2424
2017-05-04T08:07:15.320Z,2420
2017-05-04T08:07:56.185Z,2360
2017-05-04T08:08:37.063Z,2212
2017-05-04T08:09:17.920Z,2112
2017-05-04T08:09:58.778Z,2156
2017-05-04T08:10:39.671Z,2172
2017-05-04T08:11:20.522Z,2312
2017-05-04T08:12:01.405Z,2388
2017-05-04T08:12:42.280Z,2348
2017-05-04T08:13:23.156Z,2192
2017-05-04T08:14:04.010Z,2148
2017-05-04T08:14:44.911Z,2184
2017-05-04T08:15:25.800Z,2196
2017-05-04T08:16:06.683Z,2256
2017-05-04T08:16:47.543Z,2308
2017-05-04T08:17:28.415Z,2236
2017-05-04T08:18:09.300Z,2260
2017-05-04T08:18:50.187Z,2400
2017-05-04T08:19:31.053Z,2480
2017-05-04T08:20:11.953Z,2612
2017-05-04T08:20:52.798Z,2708
2017-05-04T08:21:33.647Z,2624
2017-05-04T08:22:14.505Z,2572
2017-05-04T08:22:55.393Z,2468
2017-05-04T08:23:36.258Z,2320
2017-05-04T08:24:17.122Z,2284
2017-05-04T08:24:58.044Z,2340
2017-05-04T08:25:38.915Z,2300
2017-05-04T08:26:19.788Z,2272
2017-05-04T08:27:00.684Z,2272
2017-05-04T08:27:41.574Z,2352
2017-05-04T08:28:22.430Z,2500
2017-05-04T08:29:03.322Z,2720
2017-05-04T08:29:44.253Z,2896
2017-05-04T08:30:25.112Z,3044
2017-05-04T08:31:05.968Z,2992
2017-05-04T08:31:46.838Z,2848
2017-05-04T08:32:27.715Z,2900
2017-05-04T08:33:08.599Z,2800
2017-05-04T08:33:49.475Z,2864
2017-05-04T08:34:30.342Z,2692
2017-05-04T08:35:11.220Z,2444
2017-05-04T08:35:52.077Z,2380
2017-05-04T08:36:32.966Z,2652
2017-05-04T08:37:13.872Z,2892
2017-05-04T08:37:54.749Z,2916
2017-05-04T08:38:35.612Z,2988
2017-05-04T08:39:16.481Z,2936
2017-05-04T08:39:57.362Z,3100
2017-05-04T08:40:38.243Z,3120
2017-05-04T08:41:19.132Z,3072
2017-05-04T08:42:00.000Z,2760
2017-05-04T08:42:40.884Z,2860
2017-05-04T08:43:21.757Z,3312
2017-05-04T08:44:02.616Z,3472
2017-05-04T08:44:43.485Z,3428
2017-05-04T08:45:31.283Z,3308
2017-05-04T08:46:12.154Z,3244
2017-05-04T08:46:53.070Z,3208
2017-05-04T08:47:33.947Z,3260
2017-05-04T08:48:14.848Z,3252
2017-05-04T08:48:55.738Z,3132
2017-05-04T08:49:36.657Z,2984
2017-05-04T08:50:17.540Z,3036
2017-05-04T08:50:58.424Z,3280
2017-05-04T08:51:39.300Z,3396
2017-05-04T08:52:20.192Z,3524
2017-05-04T08:53:01.163Z,3728
2017-05-04T08:53:41.960Z,3976
2017-05-04T08:54:22.832Z,4272
2017-05-04T08:55:04.295Z,4276
2017-05-04T08:55:45.185Z,4240
2017-05-04T08:56:26.075Z,3896
2017-05-04T08:57:06.989Z,3560
2017-05-04T08:57:47.874Z,3412
2017-05-04T08:58:28.759Z,3372
2017-05-04T08:59:09.640Z,3592
2017-05-04T08:59:50.501Z,3740
2017-05-04T09:00:31.377Z,3620
2017-05-04T09:01:12.259Z,3576
2017-05-04T09:01:53.112Z,3412
2017-05-04T09:02:33.986Z,3460
2017-05-04T09:03:14.875Z,3820
2017-05-04T09:03:55.744Z,4176
2017-05-04T09:04:36.632Z,4624
2017-05-04T09:05:18.075Z,4812
2017-05-04T09:05:58.958Z,4576
2017-05-04T09:06:39.830Z,4212
2017-05-04T09:07:20.745Z,3748
2017-05-04T09:08:04.410Z,3596
2017-05-04T09:08:45.309Z,3700
2017-05-04T09:09:26.891Z,3880
2017-05-04T09:10:07.754Z,3844
2017-05-04T09:10:48.635Z,3832
2017-05-04T09:11:29.513Z,3732
2017-05-04T09:12:10.445Z,3716
2017-05-04T09:12:51.311Z,3884
2017-05-04T09:13:32.197Z,3916
2017-05-04T09:14:13.058Z,4148
2017-05-04T09:14:53.969Z,4036
2017-05-04T09:15:34.833Z,4140
2017-05-04T09:16:15.740Z,4300
2017-05-04T09:16:56.661Z,4372
2017-05-04T09:17:37.580Z,4384
2017-05-04T09:18:18.445Z,4656
2017-05-04T09:18:59.339Z,4928
2017-05-04T09:19:40.234Z,4736
2017-05-04T09:20:21.120Z,4680
2017-05-04T09:21:02.522Z,5052
2017-05-04T09:21:43.425Z,5440
2017-05-04T09:22:24.297Z,5424
2017-05-04T09:23:05.197Z,5488
2017-05-04T09:23:46.084Z,5340
2017-05-04T09:24:26.975Z,4884
2017-05-04T09:25:07.844Z,4248
2017-05-04T09:25:48.698Z,3684
2017-05-04T09:26:29.571Z,3856
2017-05-04T09:27:10.446Z,4652
2017-05-04T09:27:51.364Z,4704
2017-05-04T09:28:32.230Z,3956
2017-05-04T09:29:13.122Z,3124
2017-05-04T09:29:54.007Z,2928
2017-05-04T09:30:34.870Z,3064
2017-05-04T09:31:15.754Z,3552
2017-05-04T09:31:56.642Z,4064
2017-05-04T09:34:25.762Z,4308
2017-05-04T09:35:06.677Z,5232
2017-05-04T09:35:49.196Z,6276
2017-05-04T09:36:30.073Z,6164
2017-05-04T09:37:10.948Z,5032
2017-05-04T09:37:51.851Z,4116
2017-05-04T09:38:32.764Z,3716
2017-05-04T09:39:13.670Z,3320
2017-05-04T09:39:54.593Z,2844
2017-05-04T09:40:35.430Z,3044
2017-05-04T09:43:04.538Z,4320
2017-05-04T09:43:45.429Z,4100
2017-05-04T09:46:14.583Z,3544
2017-05-04T09:46:55.466Z,3512
2017-05-04T09:47:36.352Z,3928
2017-05-04T09:48:20.713Z,4000
2017-05-04T09:49:01.631Z,3840
2017-05-04T09:49:42.506Z,3876
2017-05-04T09:52:16.749Z,3824
2017-05-04T09:54:15.299Z,3736
2017-05-04T09:55:11.099Z,3484
2017-05-04T09:55:51.965Z,3856
2017-05-04T09:56:32.847Z,4200
2017-05-04T09:58:51.767Z,3948
2017-05-04T09:59:32.668Z,3856
2017-05-04T10:00:13.526Z,3912
2017-05-04T10:00:54.402Z,4184
2017-05-04T10:01:35.270Z,4180
2017-05-04T10:02:16.145Z,4184
2017-05-04T10:09:39.331Z,3680
2017-05-04T10:10:20.211Z,3412
2017-05-04T10:11:01.102Z,3196
2017-05-04T10:11:42.001Z,2736
2017-05-04T10:12:22.894Z,2360
2017-05-04T10:13:03.794Z,2160
2017-05-04T10:13:44.665Z,2468
2017-05-04T10:14:25.557Z,2756
2017-05-04T10:15:06.427Z,3040
2017-05-04T10:15:47.305Z,3208
2017-05-04T10:16:28.217Z,3096
2017-05-04T10:17:09.066Z,3032
2017-05-04T10:17:50.637Z,3048
2017-05-04T10:18:31.522Z,3096
2017-05-04T10:19:12.403Z,2952
2017-05-04T10:19:53.290Z,2792
2017-05-04T10:20:34.175Z,2868
2017-05-04T10:21:15.065Z,2812
2017-05-04T10:21:56.508Z,2904
2017-05-04T10:22:37.403Z,3108
2017-05-04T10:23:18.279Z,3332
2017-05-04T10:24:00.144Z,3516
2017-05-04T10:24:41.047Z,3268
2017-05-04T10:25:21.938Z,2840
2017-05-04T10:26:02.819Z,2964
2017-05-04T10:26:43.699Z,2912
2017-05-04T10:27:24.579Z,2824
2017-05-04T10:28:05.475Z,2612
2017-05-04T10:28:46.393Z,2560
2017-05-04T10:29:27.280Z,2772
2017-05-04T10:30:08.169Z,2928
2017-05-04T10:30:49.021Z,2704
2017-05-04T10:31:29.904Z,2892
2017-05-04T10:32:10.788Z,3644